sensor_id;sensor_type;location;lat;lon;timestamp;pressure;altitude;pressure_sealevel;temperature;humidity
52319;BME280;38258;51.148;14.068;2023-05-02T00:01:18;98139.09;;;10.37;100.00
52319;BME280;38258;51.148;14.068;2023-05-02T00:03:45;98136.41;;;10.38;100.00
52319;BME280;38258;51.148;14.068;2023-05-02T00:06:12;98125.13;;;10.38;100.00
52319;BME280;38258;51.148;14.068;2023-05-02T00:08:38;98134.69;;;10.39;100.00
52319;BME280;38258;51.148;14.068;2023-05-02T00:11:05;98130.59;;;10.30;100.00
52319;BME280;38258;51.148;14.068;2023-05-02T00:13:33;98133.97;;;10.33;100.00
52319;BME280;38258;51.148;14.068;2023-05-02T00:16:00;98130.63;;;10.28;100.00
52319;BME280;38258;51.148;14.068;2023-05-02T00:18:27;98135.03;;;10.28;100.00
52319;BME280;38258;51.148;14.068;2023-05-02T00:20:54;98133.09;;;10.33;100.00
52319;BME280;38258;51.148;14.068;2023-05-02T00:23:21;98134.91;;;10.31;100.00
52319;BME280;38258;51.148;14.068;2023-05-02T00:25:48;98134.16;;;10.27;100.00
52319;BME280;38258;51.148;14.068;2023-05-02T00:28:15;98133.81;;;10.10;100.00
52319;BME280;38258;51.148;14.068;2023-05-02T00:30:44;98134.84;;;10.06;100.00
52319;BME280;38258;51.148;14.068;2023-05-02T00:33:11;98137.50;;;10.02;100.00
52319;BME280;38258;51.148;14.068;2023-05-02T00:35:39;98137.22;;;10.13;100.00
52319;BME280;38258;51.148;14.068;2023-05-02T00:38:06;98129.91;;;9.95;100.00
52319;BME280;38258;51.148;14.068;2023-05-02T00:40:43;98131.44;;;10.02;100.00
52319;BME280;38258;51.148;14.068;2023-05-02T00:43:10;98145.50;;;9.98;100.00
52319;BME280;38258;51.148;14.068;2023-05-02T00:45:37;98140.78;;;10.09;100.00
52319;BME280;38258;51.148;14.068;2023-05-02T00:48:07;98129.75;;;10.01;100.00
52319;BME280;38258;51.148;14.068;2023-05-02T00:50:36;98144.44;;;10.03;100.00
52319;BME280;38258;51.148;14.068;2023-05-02T00:53:03;98154.03;;;10.04;100.00
52319;BME280;38258;51.148;14.068;2023-05-02T00:55:31;98148.69;;;10.08;100.00
52319;BME280;38258;51.148;14.068;2023-05-02T00:57:59;98146.59;;;9.90;100.00
52319;BME280;38258;51.148;14.068;2023-05-02T01:00:36;98141.00;;;10.03;100.00
52319;BME280;38258;51.148;14.068;2023-05-02T01:03:14;98144.88;;;10.18;100.00
52319;BME280;38258;51.148;14.068;2023-05-02T01:05:48;98141.22;;;10.24;100.00
52319;BME280;38258;51.148;14.068;2023-05-02T01:08:28;98140.56;;;10.17;100.00
52319;BME280;38258;51.148;14.068;2023-05-02T01:11:03;98142.00;;;9.99;100.00
52319;BME280;38258;51.148;14.068;2023-05-02T01:13:33;98139.97;;;9.79;100.00
52319;BME280;38258;51.148;14.068;2023-05-02T01:16:02;98146.09;;;9.78;100.00
52319;BME280;38258;51.148;14.068;2023-05-02T01:18:33;98130.78;;;9.65;100.00
52319;BME280;38258;51.148;14.068;2023-05-02T01:21:03;98145.91;;;9.84;100.00
52319;BME280;38258;51.148;14.068;2023-05-02T01:23:37;98139.78;;;9.85;100.00
52319;BME280;38258;51.148;14.068;2023-05-02T01:26:14;98138.94;;;9.84;100.00
52319;BME280;38258;51.148;14.068;2023-05-02T01:28:57;98142.22;;;9.91;100.00
52319;BME280;38258;51.148;14.068;2023-05-02T01:31:26;98137.81;;;9.93;100.00
52319;BME280;38258;51.148;14.068;2023-05-02T01:33:55;98139.69;;;9.88;100.00
52319;BME280;38258;51.148;14.068;2023-05-02T01:36:26;98137.06;;;9.88;100.00
52319;BME280;38258;51.148;14.068;2023-05-02T01:38:55;98131.09;;;9.84;100.00
52319;BME280;38258;51.148;14.068;2023-05-02T01:41:25;98145.06;;;9.83;100.00
52319;BME280;38258;51.148;14.068;2023-05-02T01:43:53;98148.56;;;9.82;100.00
52319;BME280;38258;51.148;14.068;2023-05-02T01:46:24;98135.69;;;9.76;100.00
52319;BME280;38258;51.148;14.068;2023-05-02T01:48:52;98110.84;;;9.61;100.00
52319;BME280;38258;51.148;14.068;2023-05-02T01:51:21;98146.25;;;9.71;100.00
52319;BME280;38258;51.148;14.068;2023-05-02T01:53:49;98136.56;;;9.76;100.00
52319;BME280;38258;51.148;14.068;2023-05-02T01:56:18;98138.25;;;9.78;100.00
52319;BME280;38258;51.148;14.068;2023-05-02T01:58:46;98139.50;;;9.64;100.00
52319;BME280;38258;51.148;14.068;2023-05-02T02:01:14;98142.25;;;9.59;100.00
52319;BME280;38258;51.148;14.068;2023-05-02T02:03:44;98140.75;;;9.51;100.00
52319;BME280;38258;51.148;14.068;2023-05-02T02:06:12;98146.66;;;9.57;100.00
52319;BME280;38258;51.148;14.068;2023-05-02T02:08:39;98143.47;;;9.47;100.00
52319;BME280;38258;51.148;14.068;2023-05-02T02:11:09;98142.94;;;9.34;100.00
52319;BME280;38258;51.148;14.068;2023-05-02T02:13:44;98141.22;;;9.33;100.00
52319;BME280;38258;51.148;14.068;2023-05-02T02:16:20;98145.78;;;9.25;100.00
52319;BME280;38258;51.148;14.068;2023-05-02T02:18:50;98146.41;;;9.35;100.00
52319;BME280;38258;51.148;14.068;2023-05-02T02:21:22;98144.72;;;9.32;100.00
52319;BME280;38258;51.148;14.068;2023-05-02T02:23:53;98149.81;;;9.37;100.00
52319;BME280;38258;51.148;14.068;2023-05-02T02:26:21;98155.94;;;9.36;100.00
52319;BME280;38258;51.148;14.068;2023-05-02T02:28:49;98155.94;;;9.36;100.00
52319;BME280;38258;51.148;14.068;2023-05-02T02:31:16;98153.34;;;9.36;100.00
52319;BME280;38258;51.148;14.068;2023-05-02T02:33:43;98158.91;;;9.22;100.00
52319;BME280;38258;51.148;14.068;2023-05-02T02:36:14;98153.47;;;9.30;100.00
52319;BME280;38258;51.148;14.068;2023-05-02T02:38:47;98156.75;;;9.38;100.00
52319;BME280;38258;51.148;14.068;2023-05-02T02:41:20;98169.16;;;9.30;100.00
52319;BME280;38258;51.148;14.068;2023-05-02T02:43:59;98164.13;;;9.22;100.00
52319;BME280;38258;51.148;14.068;2023-05-02T02:46:45;98162.38;;;9.23;100.00
52319;BME280;38258;51.148;14.068;2023-05-02T02:49:28;98158.50;;;9.04;100.00
52319;BME280;38258;51.148;14.068;2023-05-02T02:52:04;98180.84;;;9.15;100.00
52319;BME280;38258;51.148;14.068;2023-05-02T02:54:34;98178.34;;;9.12;100.00
52319;BME280;38258;51.148;14.068;2023-05-02T02:57:09;98167.22;;;9.03;100.00
52319;BME280;38258;51.148;14.068;2023-05-02T02:59:46;98190.63;;;9.07;100.00
52319;BME280;38258;51.148;14.068;2023-05-02T03:02:17;98190.63;;;9.07;100.00
52319;BME280;38258;51.148;14.068;2023-05-02T03:04:45;98169.25;;;8.92;100.00
52319;BME280;38258;51.148;14.068;2023-05-02T03:07:14;98192.53;;;9.00;100.00
52319;BME280;38258;51.148;14.068;2023-05-02T03:09:41;98199.25;;;9.09;100.00
52319;BME280;38258;51.148;14.068;2023-05-02T03:12:10;98201.81;;;9.12;100.00
52319;BME280;38258;51.148;14.068;2023-05-02T03:14:39;98202.53;;;9.17;100.00
52319;BME280;38258;51.148;14.068;2023-05-02T03:17:06;98210.06;;;9.29;100.00
52319;BME280;38258;51.148;14.068;2023-05-02T03:19:34;98198.94;;;9.23;100.00
52319;BME280;38258;51.148;14.068;2023-05-02T03:22:01;98215.19;;;9.32;100.00
52319;BME280;38258;51.148;14.068;2023-05-02T03:24:30;98211.88;;;9.27;100.00
52319;BME280;38258;51.148;14.068;2023-05-02T03:26:57;98209.94;;;9.34;100.00
52319;BME280;38258;51.148;14.068;2023-05-02T03:29:34;98206.50;;;9.32;100.00
52319;BME280;38258;51.148;14.068;2023-05-02T03:32:18;98058.34;;;8.42;100.00
52319;BME280;38258;51.148;14.068;2023-05-02T03:34:45;98238.56;;;9.37;100.00
52319;BME280;38258;51.148;14.068;2023-05-02T03:37:18;98204.38;;;9.13;100.00
52319;BME280;38258;51.148;14.068;2023-05-02T03:39:58;98128.50;;;8.88;100.00
52319;BME280;38258;51.148;14.068;2023-05-02T03:42:27;98041.03;;;8.38;100.00
52319;BME280;38258;51.148;14.068;2023-05-02T03:44:58;98052.06;;;8.51;100.00
52319;BME280;38258;51.148;14.068;2023-05-02T03:47:30;98064.94;;;8.57;100.00
52319;BME280;38258;51.148;14.068;2023-05-02T03:49:57;98012.56;;;8.30;100.00
52319;BME280;38258;51.148;14.068;2023-05-02T03:52:26;98177.88;;;9.29;100.00
52319;BME280;38258;51.148;14.068;2023-05-02T03:54:53;98077.53;;;8.76;100.00
52319;BME280;38258;51.148;14.068;2023-05-02T03:57:38;98097.91;;;8.93;100.00
52319;BME280;38258;51.148;14.068;2023-05-02T04:00:20;98241.16;;;9.72;100.00
52319;BME280;38258;51.148;14.068;2023-05-02T04:02:54;98247.91;;;9.79;100.00
52319;BME280;38258;51.148;14.068;2023-05-02T04:05:28;98250.63;;;9.74;100.00
52319;BME280;38258;51.148;14.068;2023-05-02T04:07:55;98127.19;;;9.04;100.00
52319;BME280;38258;51.148;14.068;2023-05-02T04:10:37;98167.28;;;9.35;100.00
52319;BME280;38258;51.148;14.068;2023-05-02T04:13:12;98076.69;;;8.74;100.00
52319;BME280;38258;51.148;14.068;2023-05-02T04:15:45;98068.03;;;8.72;100.00
52319;BME280;38258;51.148;14.068;2023-05-02T04:18:21;98235.53;;;9.54;100.00
52319;BME280;38258;51.148;14.068;2023-05-02T04:20:52;98212.56;;;9.34;100.00
52319;BME280;38258;51.148;14.068;2023-05-02T04:23:25;98116.28;;;8.88;100.00
52319;BME280;38258;51.148;14.068;2023-05-02T04:25:59;98207.38;;;9.32;100.00
52319;BME280;38258;51.148;14.068;2023-05-02T04:28:54;98104.34;;;8.80;100.00
52319;BME280;38258;51.148;14.068;2023-05-02T04:31:20;98063.38;;;8.48;100.00
52319;BME280;38258;51.148;14.068;2023-05-02T04:33:50;98201.03;;;9.41;100.00
52319;BME280;38258;51.148;14.068;2023-05-02T04:36:21;98300.19;;;9.78;100.00
52319;BME280;38258;51.148;14.068;2023-05-02T04:38:58;98188.78;;;9.12;100.00
52319;BME280;38258;51.148;14.068;2023-05-02T04:41:29;98292.31;;;9.79;100.00
52319;BME280;38258;51.148;14.068;2023-05-02T04:44:02;98307.03;;;9.83;100.00
52319;BME280;38258;51.148;14.068;2023-05-02T04:46:29;98120.97;;;8.77;100.00
52319;BME280;38258;51.148;14.068;2023-05-02T04:48:55;98088.28;;;8.62;100.00
52319;BME280;38258;51.148;14.068;2023-05-02T04:51:22;98174.13;;;9.06;100.00
52319;BME280;38258;51.148;14.068;2023-05-02T04:53:49;98230.84;;;9.32;100.00
52319;BME280;38258;51.148;14.068;2023-05-02T04:56:16;98317.38;;;9.86;100.00
52319;BME280;38258;51.148;14.068;2023-05-02T04:58:43;98314.28;;;9.72;100.00
52319;BME280;38258;51.148;14.068;2023-05-02T05:01:13;98206.25;;;9.08;100.00
52319;BME280;38258;51.148;14.068;2023-05-02T05:03:41;98334.81;;;9.86;100.00
52319;BME280;38258;51.148;14.068;2023-05-02T05:06:08;98328.75;;;9.84;100.00
52319;BME280;38258;51.148;14.068;2023-05-02T05:08:39;98177.19;;;8.87;100.00
52319;BME280;38258;51.148;14.068;2023-05-02T05:11:06;98198.56;;;9.02;100.00
52319;BME280;38258;51.148;14.068;2023-05-02T05:13:34;98318.03;;;9.60;100.00
52319;BME280;38258;51.148;14.068;2023-05-02T05:16:04;98161.69;;;8.81;100.00
52319;BME280;38258;51.148;14.068;2023-05-02T05:18:34;98275.13;;;9.37;100.00
52319;BME280;38258;51.148;14.068;2023-05-02T05:21:05;98227.81;;;9.15;100.00
52319;BME280;38258;51.148;14.068;2023-05-02T05:23:32;98220.50;;;8.95;100.00
52319;BME280;38258;51.148;14.068;2023-05-02T05:26:08;98274.25;;;9.37;100.00
52319;BME280;38258;51.148;14.068;2023-05-02T05:28:38;98201.16;;;9.03;100.00
52319;BME280;38258;51.148;14.068;2023-05-02T05:31:05;98340.34;;;9.73;100.00
52319;BME280;38258;51.148;14.068;2023-05-02T05:33:36;98366.19;;;10.19;100.00
52319;BME280;38258;51.148;14.068;2023-05-02T05:36:05;98205.75;;;8.94;100.00
52319;BME280;38258;51.148;14.068;2023-05-02T05:38:32;98227.53;;;9.27;100.00
52319;BME280;38258;51.148;14.068;2023-05-02T05:41:01;98224.06;;;9.25;100.00
52319;BME280;38258;51.148;14.068;2023-05-02T05:43:30;98374.72;;;10.26;100.00
52319;BME280;38258;51.148;14.068;2023-05-02T05:45:58;98248.97;;;9.39;100.00
52319;BME280;38258;51.148;14.068;2023-05-02T05:48:27;98305.09;;;9.90;100.00
52319;BME280;38258;51.148;14.068;2023-05-02T05:51:02;98259.28;;;9.43;100.00
52319;BME280;38258;51.148;14.068;2023-05-02T05:53:29;98296.91;;;9.71;100.00
52319;BME280;38258;51.148;14.068;2023-05-02T05:55:56;98319.38;;;9.76;100.00
52319;BME280;38258;51.148;14.068;2023-05-02T05:58:25;98370.03;;;10.04;100.00
52319;BME280;38258;51.148;14.068;2023-05-02T06:00:57;98249.63;;;9.47;100.00
52319;BME280;38258;51.148;14.068;2023-05-02T06:03:27;98272.41;;;9.75;100.00
52319;BME280;38258;51.148;14.068;2023-05-02T06:06:01;98408.81;;;10.54;100.00
52319;BME280;38258;51.148;14.068;2023-05-02T06:08:30;98372.72;;;10.34;100.00
52319;BME280;38258;51.148;14.068;2023-05-02T06:11:00;98416.47;;;10.60;100.00
52319;BME280;38258;51.148;14.068;2023-05-02T06:13:28;98311.88;;;9.96;100.00
52319;BME280;38258;51.148;14.068;2023-05-02T06:15:59;98352.13;;;10.23;100.00
52319;BME280;38258;51.148;14.068;2023-05-02T06:18:29;98393.81;;;10.61;100.00
52319;BME280;38258;51.148;14.068;2023-05-02T06:21:03;98367.66;;;10.61;100.00
52319;BME280;38258;51.148;14.068;2023-05-02T06:23:36;98404.00;;;10.70;100.00
52319;BME280;38258;51.148;14.068;2023-05-02T06:26:04;98324.47;;;10.14;100.00
52319;BME280;38258;51.148;14.068;2023-05-02T06:28:31;98374.28;;;10.73;100.00
52319;BME280;38258;51.148;14.068;2023-05-02T06:31:01;98452.19;;;11.23;100.00
52319;BME280;38258;51.148;14.068;2023-05-02T06:33:30;98366.47;;;10.41;100.00
52319;BME280;38258;51.148;14.068;2023-05-02T06:35:58;98460.41;;;11.11;100.00
52319;BME280;38258;51.148;14.068;2023-05-02T06:38:26;98277.50;;;10.11;100.00
52319;BME280;38258;51.148;14.068;2023-05-02T06:40:55;98388.69;;;10.88;100.00
52319;BME280;38258;51.148;14.068;2023-05-02T06:43:26;98409.28;;;10.69;100.00
52319;BME280;38258;51.148;14.068;2023-05-02T06:45:55;98366.50;;;10.71;100.00
52319;BME280;38258;51.148;14.068;2023-05-02T06:48:24;98361.72;;;10.54;100.00
52319;BME280;38258;51.148;14.068;2023-05-02T06:50:53;98410.28;;;10.95;100.00
52319;BME280;38258;51.148;14.068;2023-05-02T06:53:20;98419.63;;;11.03;100.00
52319;BME280;38258;51.148;14.068;2023-05-02T06:55:48;98451.69;;;11.12;100.00
52319;BME280;38258;51.148;14.068;2023-05-02T06:58:15;98444.03;;;11.04;100.00
52319;BME280;38258;51.148;14.068;2023-05-02T07:00:43;98386.19;;;10.83;100.00
52319;BME280;38258;51.148;14.068;2023-05-02T07:03:12;98330.56;;;10.46;100.00
52319;BME280;38258;51.148;14.068;2023-05-02T07:05:39;98482.97;;;11.45;100.00
52319;BME280;38258;51.148;14.068;2023-05-02T07:08:06;98451.63;;;10.82;100.00
52319;BME280;38258;51.148;14.068;2023-05-02T07:10:33;98512.19;;;11.31;100.00
52319;BME280;38258;51.148;14.068;2023-05-02T07:13:01;98418.00;;;10.69;100.00
52319;BME280;38258;51.148;14.068;2023-05-02T07:15:30;98422.25;;;10.72;100.00
52319;BME280;38258;51.148;14.068;2023-05-02T07:18:00;98403.00;;;10.76;100.00
52319;BME280;38258;51.148;14.068;2023-05-02T07:20:27;98315.97;;;10.06;100.00
52319;BME280;38258;51.148;14.068;2023-05-02T07:22:55;98467.63;;;11.02;100.00
52319;BME280;38258;51.148;14.068;2023-05-02T07:25:24;98364.84;;;10.36;100.00
52319;BME280;38258;51.148;14.068;2023-05-02T07:27:51;98536.63;;;11.62;100.00
52319;BME280;38258;51.148;14.068;2023-05-02T07:30:22;98468.09;;;11.17;100.00
52319;BME280;38258;51.148;14.068;2023-05-02T07:32:51;98496.91;;;11.15;100.00
52319;BME280;38258;51.148;14.068;2023-05-02T07:35:17;98388.44;;;10.96;100.00
52319;BME280;38258;51.148;14.068;2023-05-02T07:37:44;98440.59;;;11.02;100.00
52319;BME280;38258;51.148;14.068;2023-05-02T07:40:11;98376.63;;;10.82;100.00
52319;BME280;38258;51.148;14.068;2023-05-02T07:42:38;98439.84;;;11.28;100.00
52319;BME280;38258;51.148;14.068;2023-05-02T07:45:07;98504.16;;;11.37;100.00
52319;BME280;38258;51.148;14.068;2023-05-02T07:47:35;98527.34;;;11.80;100.00
52319;BME280;38258;51.148;14.068;2023-05-02T07:50:02;98455.91;;;11.16;100.00
52319;BME280;38258;51.148;14.068;2023-05-02T07:52:31;98489.97;;;11.44;100.00
52319;BME280;38258;51.148;14.068;2023-05-02T07:55:01;98568.66;;;12.00;100.00
52319;BME280;38258;51.148;14.068;2023-05-02T07:57:27;98426.75;;;11.28;100.00
52319;BME280;38258;51.148;14.068;2023-05-02T07:59:57;98597.22;;;12.38;100.00
52319;BME280;38258;51.148;14.068;2023-05-02T08:02:28;98473.44;;;11.42;100.00
52319;BME280;38258;51.148;14.068;2023-05-02T08:04:56;98532.41;;;11.56;100.00
52319;BME280;38258;51.148;14.068;2023-05-02T08:07:23;98443.53;;;11.21;100.00
52319;BME280;38258;51.148;14.068;2023-05-02T08:09:50;98470.84;;;11.71;100.00
52319;BME280;38258;51.148;14.068;2023-05-02T08:12:27;98609.47;;;12.09;100.00
52319;BME280;38258;51.148;14.068;2023-05-02T08:14:56;98451.06;;;11.60;100.00
52319;BME280;38258;51.148;14.068;2023-05-02T08:17:23;98503.03;;;11.46;100.00
52319;BME280;38258;51.148;14.068;2023-05-02T08:19:58;98444.88;;;10.74;100.00
52319;BME280;38258;51.148;14.068;2023-05-02T08:22:24;98454.22;;;10.83;100.00
52319;BME280;38258;51.148;14.068;2023-05-02T08:24:53;98536.13;;;11.49;100.00
52319;BME280;38258;51.148;14.068;2023-05-02T08:27:23;98604.41;;;12.02;100.00
52319;BME280;38258;51.148;14.068;2023-05-02T08:29:49;98485.69;;;11.42;100.00
52319;BME280;38258;51.148;14.068;2023-05-02T08:32:16;98545.63;;;11.21;100.00
52319;BME280;38258;51.148;14.068;2023-05-02T08:34:43;98642.41;;;10.91;100.00
52319;BME280;38258;51.148;14.068;2023-05-02T08:37:11;98535.34;;;11.15;100.00
52319;BME280;38258;51.148;14.068;2023-05-02T08:39:38;98476.28;;;10.74;100.00
52319;BME280;38258;51.148;14.068;2023-05-02T08:42:05;98511.75;;;10.52;100.00
52319;BME280;38258;51.148;14.068;2023-05-02T08:44:32;98494.81;;;10.65;100.00
52319;BME280;38258;51.148;14.068;2023-05-02T08:46:59;98685.19;;;11.25;100.00
52319;BME280;38258;51.148;14.068;2023-05-02T08:49:26;98653.25;;;11.12;100.00
52319;BME280;38258;51.148;14.068;2023-05-02T08:51:56;98672.59;;;11.06;100.00
52319;BME280;38258;51.148;14.068;2023-05-02T08:54:26;98579.50;;;11.27;100.00
52319;BME280;38258;51.148;14.068;2023-05-02T08:56:56;98564.53;;;11.63;100.00
52319;BME280;38258;51.148;14.068;2023-05-02T08:59:24;98612.09;;;12.64;100.00
52319;BME280;38258;51.148;14.068;2023-05-02T09:01:54;98701.09;;;13.24;100.00
52319;BME280;38258;51.148;14.068;2023-05-02T09:04:25;98597.50;;;12.55;100.00
52319;BME280;38258;51.148;14.068;2023-05-02T09:06:56;98562.69;;;11.95;100.00
52319;BME280;38258;51.148;14.068;2023-05-02T09:09:23;98592.91;;;12.35;100.00
52319;BME280;38258;51.148;14.068;2023-05-02T09:11:58;98457.94;;;11.06;100.00
52319;BME280;38258;51.148;14.068;2023-05-02T09:14:29;98647.47;;;12.24;100.00
52319;BME280;38258;51.148;14.068;2023-05-02T09:17:00;98498.50;;;10.91;100.00
52319;BME280;38258;51.148;14.068;2023-05-02T09:19:27;98667.25;;;12.34;100.00
52319;BME280;38258;51.148;14.068;2023-05-02T09:21:58;98679.00;;;12.22;100.00
52319;BME280;38258;51.148;14.068;2023-05-02T09:24:28;98540.72;;;11.40;100.00
52319;BME280;38258;51.148;14.068;2023-05-02T09:26:58;98581.47;;;11.51;100.00
52319;BME280;38258;51.148;14.068;2023-05-02T09:29:26;98705.72;;;12.64;100.00
52319;BME280;38258;51.148;14.068;2023-05-02T09:31:57;98678.50;;;12.66;100.00
52319;BME280;38258;51.148;14.068;2023-05-02T09:34:24;98591.72;;;12.17;100.00
52319;BME280;38258;51.148;14.068;2023-05-02T09:36:51;98620.66;;;13.47;97.01
52319;BME280;38258;51.148;14.068;2023-05-02T09:39:22;98536.75;;;13.41;96.47
52319;BME280;38258;51.148;14.068;2023-05-02T09:41:52;98675.41;;;13.60;92.04
52319;BME280;38258;51.148;14.068;2023-05-02T09:44:25;98620.16;;;13.36;90.90
52319;BME280;38258;51.148;14.068;2023-05-02T09:46:55;98622.56;;;13.17;93.20
52319;BME280;38258;51.148;14.068;2023-05-02T09:49:40;98624.13;;;13.95;91.31
52319;BME280;38258;51.148;14.068;2023-05-02T09:52:10;98723.06;;;14.22;87.31
52319;BME280;38258;51.148;14.068;2023-05-02T09:54:39;98530.22;;;13.99;86.52
52319;BME280;38258;51.148;14.068;2023-05-02T09:57:06;98525.47;;;12.90;87.90
52319;BME280;38258;51.148;14.068;2023-05-02T09:59:37;98602.66;;;13.35;97.14
52319;BME280;38258;51.148;14.068;2023-05-02T10:02:07;98634.72;;;14.16;93.17
52319;BME280;38258;51.148;14.068;2023-05-02T10:04:37;98697.28;;;13.08;98.83
52319;BME280;38258;51.148;14.068;2023-05-02T10:07:04;98560.09;;;12.76;92.87
52319;BME280;38258;51.148;14.068;2023-05-02T10:09:34;98626.88;;;13.45;91.52
52319;BME280;38258;51.148;14.068;2023-05-02T10:12:02;98668.09;;;12.90;92.60
52319;BME280;38258;51.148;14.068;2023-05-02T10:14:30;98576.56;;;11.70;99.38
52319;BME280;38258;51.148;14.068;2023-05-02T10:17:10;98604.19;;;12.66;100.00
52319;BME280;38258;51.148;14.068;2023-05-02T10:19:43;98559.03;;;12.56;99.46
52319;BME280;38258;51.148;14.068;2023-05-02T10:22:14;98536.41;;;12.52;97.20
52319;BME280;38258;51.148;14.068;2023-05-02T10:24:48;98631.66;;;12.81;99.21
52319;BME280;38258;51.148;14.068;2023-05-02T10:27:15;98576.31;;;11.78;100.00
52319;BME280;38258;51.148;14.068;2023-05-02T10:29:43;98732.78;;;12.93;100.00
52319;BME280;38258;51.148;14.068;2023-05-02T10:32:16;98746.63;;;12.98;100.00
52319;BME280;38258;51.148;14.068;2023-05-02T10:34:45;98600.47;;;11.87;100.00
52319;BME280;38258;51.148;14.068;2023-05-02T10:37:11;98569.16;;;12.13;100.00
52319;BME280;38258;51.148;14.068;2023-05-02T10:39:40;98760.88;;;13.70;100.00
52319;BME280;38258;51.148;14.068;2023-05-02T10:42:08;98664.53;;;14.17;95.85
52319;BME280;38258;51.148;14.068;2023-05-02T10:44:36;98702.50;;;14.55;90.73
52319;BME280;38258;51.148;14.068;2023-05-02T10:47:18;98614.47;;;14.18;86.92
52319;BME280;38258;51.148;14.068;2023-05-02T10:49:50;98671.13;;;14.27;87.70
52319;BME280;38258;51.148;14.068;2023-05-02T10:52:28;98554.97;;;12.72;93.19
52319;BME280;38258;51.148;14.068;2023-05-02T10:55:16;98602.72;;;13.59;94.19
52319;BME280;38258;51.148;14.068;2023-05-02T10:58:21;98751.06;;;15.36;87.87
52319;BME280;38258;51.148;14.068;2023-05-02T11:00:48;98677.69;;;13.93;88.35
52319;BME280;38258;51.148;14.068;2023-05-02T11:06:25;98668.50;;;13.55;91.96
52319;BME280;38258;51.148;14.068;2023-05-02T11:08:52;98714.34;;;13.48;99.54
52319;BME280;38258;51.148;14.068;2023-05-02T11:11:37;98648.03;;;13.14;96.64
52319;BME280;38258;51.148;14.068;2023-05-02T11:14:07;98765.66;;;13.59;97.46
52319;BME280;38258;51.148;14.068;2023-05-02T11:17:08;98759.81;;;13.50;99.92
52319;BME280;38258;51.148;14.068;2023-05-02T11:22:52;98667.75;;;12.74;100.00
52319;BME280;38258;51.148;14.068;2023-05-02T11:25:38;98608.44;;;12.68;99.17
52319;BME280;38258;51.148;14.068;2023-05-02T11:28:06;98579.91;;;12.32;100.00
52319;BME280;38258;51.148;14.068;2023-05-02T11:30:43;98615.88;;;12.82;98.85
52319;BME280;38258;51.148;14.068;2023-05-02T11:33:14;98566.38;;;12.71;98.38
52319;BME280;38258;51.148;14.068;2023-05-02T11:35:46;98698.09;;;13.86;98.47
52319;BME280;38258;51.148;14.068;2023-05-02T11:38:35;98676.38;;;14.27;92.43
52319;BME280;38258;51.148;14.068;2023-05-02T11:41:05;98686.59;;;14.81;88.09
52319;BME280;38258;51.148;14.068;2023-05-02T11:43:33;98707.59;;;14.14;91.60
52319;BME280;38258;51.148;14.068;2023-05-02T11:46:01;98645.63;;;13.59;93.79
52319;BME280;38258;51.148;14.068;2023-05-02T11:48:29;98698.97;;;13.36;93.64
52319;BME280;38258;51.148;14.068;2023-05-02T11:50:58;98693.94;;;13.29;95.60
52319;BME280;38258;51.148;14.068;2023-05-02T11:53:31;98776.63;;;13.45;96.70
52319;BME280;38258;51.148;14.068;2023-05-02T11:56:00;98627.13;;;12.59;98.83
52319;BME280;38258;51.148;14.068;2023-05-02T11:58:29;98659.28;;;12.37;100.00
52319;BME280;38258;51.148;14.068;2023-05-02T12:01:10;98748.53;;;12.93;100.00
52319;BME280;38258;51.148;14.068;2023-05-02T12:03:37;98741.50;;;13.20;100.00
52319;BME280;38258;51.148;14.068;2023-05-02T12:06:10;98715.91;;;13.27;100.00
52319;BME280;38258;51.148;14.068;2023-05-02T12:08:42;98786.16;;;13.74;100.00
52319;BME280;38258;51.148;14.068;2023-05-02T12:11:11;98631.72;;;12.79;100.00
52319;BME280;38258;51.148;14.068;2023-05-02T12:13:43;98759.63;;;13.80;100.00
52319;BME280;38258;51.148;14.068;2023-05-02T12:16:14;98660.47;;;13.35;100.00
52319;BME280;38258;51.148;14.068;2023-05-02T12:18:41;98713.06;;;13.84;100.00
52319;BME280;38258;51.148;14.068;2023-05-02T12:21:09;98791.91;;;15.03;95.85
52319;BME280;38258;51.148;14.068;2023-05-02T12:23:40;98759.69;;;14.96;91.01
52319;BME280;38258;51.148;14.068;2023-05-02T12:26:17;98802.31;;;13.89;96.08
52319;BME280;38258;51.148;14.068;2023-05-02T12:28:49;98720.56;;;12.92;99.71
52319;BME280;38258;51.148;14.068;2023-05-02T12:31:19;98686.69;;;12.57;100.00
52319;BME280;38258;51.148;14.068;2023-05-02T12:33:46;98719.16;;;12.81;100.00
52319;BME280;38258;51.148;14.068;2023-05-02T12:36:15;98660.88;;;12.14;100.00
52319;BME280;38258;51.148;14.068;2023-05-02T12:38:48;98686.13;;;12.74;100.00
52319;BME280;38258;51.148;14.068;2023-05-02T12:41:17;98623.03;;;11.93;100.00
52319;BME280;38258;51.148;14.068;2023-05-02T12:43:46;98720.88;;;12.82;100.00
52319;BME280;38258;51.148;14.068;2023-05-02T12:46:13;98692.56;;;12.37;100.00
52319;BME280;38258;51.148;14.068;2023-05-02T12:48:40;98685.91;;;12.25;100.00
52319;BME280;38258;51.148;14.068;2023-05-02T12:51:20;98704.72;;;12.09;100.00
52319;BME280;38258;51.148;14.068;2023-05-02T12:53:49;98712.78;;;12.32;100.00
52319;BME280;38258;51.148;14.068;2023-05-02T12:56:16;98737.34;;;12.59;100.00
52319;BME280;38258;51.148;14.068;2023-05-02T12:58:44;98705.47;;;12.71;100.00
52319;BME280;38258;51.148;14.068;2023-05-02T13:01:12;98658.31;;;12.68;100.00
52319;BME280;38258;51.148;14.068;2023-05-02T13:03:42;98709.59;;;12.22;100.00
52319;BME280;38258;51.148;14.068;2023-05-02T13:06:09;98683.88;;;12.35;100.00
52319;BME280;38258;51.148;14.068;2023-05-02T13:08:36;98606.09;;;11.43;100.00